sensor_id;sensor_type;location;lat;lon;timestamp;temperature;humidity
7254;DHT22;4060;49.186;9.226;2023-08-01T00:01:11;22.50;71.20
7254;DHT22;4060;49.186;9.226;2023-08-01T00:03:45;22.40;71.20
7254;DHT22;4060;49.186;9.226;2023-08-01T00:06:14;22.40;71.40
7254;DHT22;4060;49.186;9.226;2023-08-01T00:08:44;22.40;71.40
7254;DHT22;4060;49.186;9.226;2023-08-01T00:11:13;22.40;71.50
7254;DHT22;4060;49.186;9.226;2023-08-01T00:13:43;22.40;71.60
7254;DHT22;4060;49.186;9.226;2023-08-01T00:16:12;22.40;71.60
7254;DHT22;4060;49.186;9.226;2023-08-01T00:18:44;22.30;71.60
7254;DHT22;4060;49.186;9.226;2023-08-01T00:21:14;22.30;71.80
7254;DHT22;4060;49.186;9.226;2023-08-01T00:23:44;22.30;71.80
7254;DHT22;4060;49.186;9.226;2023-08-01T00:26:14;22.30;71.80
7254;DHT22;4060;49.186;9.226;2023-08-01T00:28:44;22.30;71.90
7254;DHT22;4060;49.186;9.226;2023-08-01T00:31:13;22.30;71.90
7254;DHT22;4060;49.186;9.226;2023-08-01T00:33:45;22.30;71.90
7254;DHT22;4060;49.186;9.226;2023-08-01T00:36:14;22.30;72.00
7254;DHT22;4060;49.186;9.226;2023-08-01T00:38:45;22.20;71.90
7254;DHT22;4060;49.186;9.226;2023-08-01T00:41:16;22.20;72.10
7254;DHT22;4060;49.186;9.226;2023-08-01T00:43:45;22.20;72.10
7254;DHT22;4060;49.186;9.226;2023-08-01T00:46:15;22.20;72.30
7254;DHT22;4060;49.186;9.226;2023-08-01T00:48:46;22.20;72.30
7254;DHT22;4060;49.186;9.226;2023-08-01T00:51:15;22.20;72.40
7254;DHT22;4060;49.186;9.226;2023-08-01T00:53:46;22.20;72.40
7254;DHT22;4060;49.186;9.226;2023-08-01T00:56:15;22.10;72.30
7254;DHT22;4060;49.186;9.226;2023-08-01T00:58:45;22.10;72.30
7254;DHT22;4060;49.186;9.226;2023-08-01T01:01:15;22.10;72.30
7254;DHT22;4060;49.186;9.226;2023-08-01T01:03:47;22.10;72.30
7254;DHT22;4060;49.186;9.226;2023-08-01T01:06:19;22.10;72.30
7254;DHT22;4060;49.186;9.226;2023-08-01T01:08:50;22.10;72.40
7254;DHT22;4060;49.186;9.226;2023-08-01T01:11:21;22.10;72.30
7254;DHT22;4060;49.186;9.226;2023-08-01T01:13:51;22.10;72.30
7254;DHT22;4060;49.186;9.226;2023-08-01T01:16:21;22.10;72.50
7254;DHT22;4060;49.186;9.226;2023-08-01T01:18:53;22.10;72.40
7254;DHT22;4060;49.186;9.226;2023-08-01T01:21:25;22.10;72.50
7254;DHT22;4060;49.186;9.226;2023-08-01T01:23:55;22.10;72.50
7254;DHT22;4060;49.186;9.226;2023-08-01T01:26:26;22.00;72.30
7254;DHT22;4060;49.186;9.226;2023-08-01T01:28:57;22.00;72.50
7254;DHT22;4060;49.186;9.226;2023-08-01T01:31:27;22.00;72.50
7254;DHT22;4060;49.186;9.226;2023-08-01T01:33:57;22.00;72.50
7254;DHT22;4060;49.186;9.226;2023-08-01T01:36:29;22.00;72.60
7254;DHT22;4060;49.186;9.226;2023-08-01T01:38:58;22.00;72.60
7254;DHT22;4060;49.186;9.226;2023-08-01T01:41:28;22.00;72.60
7254;DHT22;4060;49.186;9.226;2023-08-01T01:43:57;22.00;73.60
7254;DHT22;4060;49.186;9.226;2023-08-01T01:46:27;21.90;72.80
7254;DHT22;4060;49.186;9.226;2023-08-01T01:48:56;21.90;73.00
7254;DHT22;4060;49.186;9.226;2023-08-01T01:51:28;21.90;73.20
7254;DHT22;4060;49.186;9.226;2023-08-01T01:53:58;21.90;73.40
7254;DHT22;4060;49.186;9.226;2023-08-01T01:56:30;21.90;73.50
7254;DHT22;4060;49.186;9.226;2023-08-01T01:59:00;21.80;73.40
7254;DHT22;4060;49.186;9.226;2023-08-01T02:01:30;21.90;73.70
7254;DHT22;4060;49.186;9.226;2023-08-01T02:04:01;21.80;73.70
7254;DHT22;4060;49.186;9.226;2023-08-01T02:06:37;21.80;73.80
7254;DHT22;4060;49.186;9.226;2023-08-01T02:09:13;21.80;74.10
7254;DHT22;4060;49.186;9.226;2023-08-01T02:11:43;21.80;74.10
7254;DHT22;4060;49.186;9.226;2023-08-01T02:14:14;21.80;74.20
7254;DHT22;4060;49.186;9.226;2023-08-01T02:16:43;21.70;74.10
7254;DHT22;4060;49.186;9.226;2023-08-01T02:19:13;21.70;74.20
7254;DHT22;4060;49.186;9.226;2023-08-01T02:21:45;21.70;74.30
7254;DHT22;4060;49.186;9.226;2023-08-01T02:24:14;21.70;74.30
7254;DHT22;4060;49.186;9.226;2023-08-01T02:26:45;21.70;74.30
7254;DHT22;4060;49.186;9.226;2023-08-01T02:29:14;21.70;74.40
7254;DHT22;4060;49.186;9.226;2023-08-01T02:31:45;21.70;74.40
7254;DHT22;4060;49.186;9.226;2023-08-01T02:34:14;21.70;74.50
7254;DHT22;4060;49.186;9.226;2023-08-01T02:36:45;21.70;74.50
7254;DHT22;4060;49.186;9.226;2023-08-01T02:39:15;21.70;74.50
7254;DHT22;4060;49.186;9.226;2023-08-01T02:41:44;21.70;74.60
7254;DHT22;4060;49.186;9.226;2023-08-01T02:44:16;21.70;74.60
7254;DHT22;4060;49.186;9.226;2023-08-01T02:46:46;21.70;74.60
7254;DHT22;4060;49.186;9.226;2023-08-01T02:49:15;21.70;74.70
7254;DHT22;4060;49.186;9.226;2023-08-01T02:51:47;21.70;74.90
7254;DHT22;4060;49.186;9.226;2023-08-01T02:54:16;21.60;74.80
7254;DHT22;4060;49.186;9.226;2023-08-01T02:56:46;21.60;74.80
7254;DHT22;4060;49.186;9.226;2023-08-01T02:59:14;21.60;74.80
7254;DHT22;4060;49.186;9.226;2023-08-01T03:01:45;21.60;74.80
7254;DHT22;4060;49.186;9.226;2023-08-01T03:04:15;21.60;74.90
7254;DHT22;4060;49.186;9.226;2023-08-01T03:06:53;21.60;74.90
7254;DHT22;4060;49.186;9.226;2023-08-01T03:09:22;21.60;75.10
7254;DHT22;4060;49.186;9.226;2023-08-01T03:11:52;21.50;75.00
7254;DHT22;4060;49.186;9.226;2023-08-01T03:14:22;21.60;75.10
7254;DHT22;4060;49.186;9.226;2023-08-01T03:16:51;21.50;75.00
7254;DHT22;4060;49.186;9.226;2023-08-01T03:19:21;21.60;75.00
7254;DHT22;4060;49.186;9.226;2023-08-01T03:21:53;21.60;75.00
7254;DHT22;4060;49.186;9.226;2023-08-01T03:24:22;21.50;74.90
7254;DHT22;4060;49.186;9.226;2023-08-01T03:26:52;21.50;75.00
7254;DHT22;4060;49.186;9.226;2023-08-01T03:29:21;21.60;75.20
7254;DHT22;4060;49.186;9.226;2023-08-01T03:31:50;21.60;75.20
7254;DHT22;4060;49.186;9.226;2023-08-01T03:34:22;21.50;75.10
7254;DHT22;4060;49.186;9.226;2023-08-01T03:36:55;21.50;75.10
7254;DHT22;4060;49.186;9.226;2023-08-01T03:39:25;21.50;75.10
7254;DHT22;4060;49.186;9.226;2023-08-01T03:41:54;21.50;75.10
7254;DHT22;4060;49.186;9.226;2023-08-01T03:44:23;21.50;75.10
7254;DHT22;4060;49.186;9.226;2023-08-01T03:46:53;21.50;75.10
7254;DHT22;4060;49.186;9.226;2023-08-01T03:49:23;21.50;75.00
7254;DHT22;4060;49.186;9.226;2023-08-01T03:51:54;21.50;75.00
7254;DHT22;4060;49.186;9.226;2023-08-01T03:54:23;21.50;75.10
7254;DHT22;4060;49.186;9.226;2023-08-01T03:56:53;21.50;75.20
7254;DHT22;4060;49.186;9.226;2023-08-01T03:59:22;21.50;75.30
7254;DHT22;4060;49.186;9.226;2023-08-01T04:01:53;21.50;75.40
7254;DHT22;4060;49.186;9.226;2023-08-01T04:04:23;21.50;75.50
7254;DHT22;4060;49.186;9.226;2023-08-01T04:06:55;21.50;75.60
7254;DHT22;4060;49.186;9.226;2023-08-01T04:09:24;21.50;75.70
7254;DHT22;4060;49.186;9.226;2023-08-01T04:11:54;21.50;75.80
7254;DHT22;4060;49.186;9.226;2023-08-01T04:14:23;21.50;76.00
7254;DHT22;4060;49.186;9.226;2023-08-01T04:16:53;21.50;76.20
7254;DHT22;4060;49.186;9.226;2023-08-01T04:19:22;21.50;76.30
7254;DHT22;4060;49.186;9.226;2023-08-01T04:21:54;21.50;76.30
7254;DHT22;4060;49.186;9.226;2023-08-01T04:24:24;21.50;76.40
7254;DHT22;4060;49.186;9.226;2023-08-01T04:26:54;21.50;76.50
7254;DHT22;4060;49.186;9.226;2023-08-01T04:29:24;21.50;76.60
7254;DHT22;4060;49.186;9.226;2023-08-01T04:31:53;21.50;76.60
7254;DHT22;4060;49.186;9.226;2023-08-01T04:34:23;21.40;76.60
7254;DHT22;4060;49.186;9.226;2023-08-01T04:36:54;21.50;76.80
7254;DHT22;4060;49.186;9.226;2023-08-01T04:39:25;21.50;76.80
7254;DHT22;4060;49.186;9.226;2023-08-01T04:41:55;21.50;76.80
7254;DHT22;4060;49.186;9.226;2023-08-01T04:44:25;21.50;76.80
7254;DHT22;4060;49.186;9.226;2023-08-01T04:46:54;21.40;76.90
7254;DHT22;4060;49.186;9.226;2023-08-01T04:49:24;21.40;76.80
7254;DHT22;4060;49.186;9.226;2023-08-01T04:51:55;21.50;76.80
7254;DHT22;4060;49.186;9.226;2023-08-01T04:54:24;21.50;76.80
7254;DHT22;4060;49.186;9.226;2023-08-01T04:56:54;21.40;76.80
7254;DHT22;4060;49.186;9.226;2023-08-01T04:59:27;21.50;76.80
7254;DHT22;4060;49.186;9.226;2023-08-01T05:01:57;21.50;76.80
7254;DHT22;4060;49.186;9.226;2023-08-01T05:04:26;21.40;76.70
7254;DHT22;4060;49.186;9.226;2023-08-01T05:06:58;21.40;76.70
7254;DHT22;4060;49.186;9.226;2023-08-01T05:09:27;21.40;76.80
7254;DHT22;4060;49.186;9.226;2023-08-01T05:11:57;21.40;76.70
7254;DHT22;4060;49.186;9.226;2023-08-01T05:14:26;21.40;76.90
7254;DHT22;4060;49.186;9.226;2023-08-01T05:16:55;21.40;77.70
7254;DHT22;4060;49.186;9.226;2023-08-01T05:19:25;21.40;76.90
7254;DHT22;4060;49.186;9.226;2023-08-01T05:22:01;21.40;77.00
7254;DHT22;4060;49.186;9.226;2023-08-01T05:24:31;21.40;77.00
7254;DHT22;4060;49.186;9.226;2023-08-01T05:27:00;21.40;77.10
7254;DHT22;4060;49.186;9.226;2023-08-01T05:29:30;21.40;77.30
7254;DHT22;4060;49.186;9.226;2023-08-01T05:31:59;21.40;77.30
7254;DHT22;4060;49.186;9.226;2023-08-01T05:34:29;21.40;77.40
7254;DHT22;4060;49.186;9.226;2023-08-01T05:37:01;21.40;77.50
7254;DHT22;4060;49.186;9.226;2023-08-01T05:39:31;21.40;77.50
7254;DHT22;4060;49.186;9.226;2023-08-01T05:42:00;21.40;77.40
7254;DHT22;4060;49.186;9.226;2023-08-01T05:44:30;21.40;77.40
7254;DHT22;4060;49.186;9.226;2023-08-01T05:47:00;21.30;77.30
7254;DHT22;4060;49.186;9.226;2023-08-01T05:49:29;21.30;77.30
7254;DHT22;4060;49.186;9.226;2023-08-01T05:52:01;21.30;77.40
7254;DHT22;4060;49.186;9.226;2023-08-01T05:54:31;21.30;77.20
7254;DHT22;4060;49.186;9.226;2023-08-01T05:57:00;21.30;77.20
7254;DHT22;4060;49.186;9.226;2023-08-01T05:59:29;21.30;77.20
7254;DHT22;4060;49.186;9.226;2023-08-01T06:01:59;21.30;77.30
7254;DHT22;4060;49.186;9.226;2023-08-01T06:04:29;21.30;77.20
7254;DHT22;4060;49.186;9.226;2023-08-01T06:06:58;21.30;77.20
7254;DHT22;4060;49.186;9.226;2023-08-01T06:09:29;21.30;77.30
7254;DHT22;4060;49.186;9.226;2023-08-01T06:11:58;21.30;77.40
7254;DHT22;4060;49.186;9.226;2023-08-01T06:14:28;21.30;77.40
7254;DHT22;4060;49.186;9.226;2023-08-01T06:16:57;21.30;77.40
7254;DHT22;4060;49.186;9.226;2023-08-01T06:19:27;21.30;77.40
7254;DHT22;4060;49.186;9.226;2023-08-01T06:21:57;21.30;77.40
7254;DHT22;4060;49.186;9.226;2023-08-01T06:24:29;21.30;77.70
7254;DHT22;4060;49.186;9.226;2023-08-01T06:26:58;21.30;77.70
7254;DHT22;4060;49.186;9.226;2023-08-01T06:29:28;21.30;77.70
7254;DHT22;4060;49.186;9.226;2023-08-01T06:31:57;21.30;77.80
7254;DHT22;4060;49.186;9.226;2023-08-01T06:34:26;21.30;77.90
7254;DHT22;4060;49.186;9.226;2023-08-01T06:36:56;21.20;77.80
7254;DHT22;4060;49.186;9.226;2023-08-01T06:39:25;21.30;77.90
7254;DHT22;4060;49.186;9.226;2023-08-01T06:41:56;21.20;77.80
7254;DHT22;4060;49.186;9.226;2023-08-01T06:44:26;21.20;77.90
7254;DHT22;4060;49.186;9.226;2023-08-01T06:46:56;21.20;77.90
7254;DHT22;4060;49.186;9.226;2023-08-01T06:49:25;21.20;77.90
7254;DHT22;4060;49.186;9.226;2023-08-01T06:51:57;21.20;78.00
7254;DHT22;4060;49.186;9.226;2023-08-01T06:54:28;21.20;78.10
7254;DHT22;4060;49.186;9.226;2023-08-01T06:57:00;21.20;78.10
7254;DHT22;4060;49.186;9.226;2023-08-01T06:59:29;21.20;78.30
7254;DHT22;4060;49.186;9.226;2023-08-01T07:01:59;21.20;78.30
7254;DHT22;4060;49.186;9.226;2023-08-01T07:04:28;21.20;78.40
7254;DHT22;4060;49.186;9.226;2023-08-01T07:06:57;21.20;78.50
7254;DHT22;4060;49.186;9.226;2023-08-01T07:09:27;21.10;78.40
7254;DHT22;4060;49.186;9.226;2023-08-01T07:12:00;21.10;78.50
7254;DHT22;4060;49.186;9.226;2023-08-01T07:14:29;21.10;78.60
7254;DHT22;4060;49.186;9.226;2023-08-01T07:16:58;21.10;78.60
7254;DHT22;4060;49.186;9.226;2023-08-01T07:19:29;21.10;78.60
7254;DHT22;4060;49.186;9.226;2023-08-01T07:21:59;21.10;78.60
7254;DHT22;4060;49.186;9.226;2023-08-01T07:24:28;21.10;78.90
7254;DHT22;4060;49.186;9.226;2023-08-01T07:26:59;21.10;79.00
7254;DHT22;4060;49.186;9.226;2023-08-01T07:29:28;21.10;79.00
7254;DHT22;4060;49.186;9.226;2023-08-01T07:31:58;21.00;78.80
7254;DHT22;4060;49.186;9.226;2023-08-01T07:34:29;21.00;78.90
7254;DHT22;4060;49.186;9.226;2023-08-01T07:36:59;21.00;79.00
7254;DHT22;4060;49.186;9.226;2023-08-01T07:39:28;21.00;78.90
7254;DHT22;4060;49.186;9.226;2023-08-01T07:42:01;21.00;79.00
7254;DHT22;4060;49.186;9.226;2023-08-01T07:44:32;21.00;79.10
7254;DHT22;4060;49.186;9.226;2023-08-01T07:47:03;21.00;79.10
7254;DHT22;4060;49.186;9.226;2023-08-01T07:49:36;21.00;79.30
7254;DHT22;4060;49.186;9.226;2023-08-01T07:52:06;20.90;79.10
7254;DHT22;4060;49.186;9.226;2023-08-01T07:54:36;21.00;79.40
7254;DHT22;4060;49.186;9.226;2023-08-01T07:57:08;21.00;79.40
7254;DHT22;4060;49.186;9.226;2023-08-01T07:59:38;20.90;79.40
7254;DHT22;4060;49.186;9.226;2023-08-01T08:02:07;21.00;79.60
7254;DHT22;4060;49.186;9.226;2023-08-01T08:04:37;20.90;79.60
7254;DHT22;4060;49.186;9.226;2023-08-01T08:07:06;20.90;79.80
7254;DHT22;4060;49.186;9.226;2023-08-01T08:09:36;20.90;79.90
7254;DHT22;4060;49.186;9.226;2023-08-01T08:12:07;20.90;80.10
7254;DHT22;4060;49.186;9.226;2023-08-01T08:14:38;20.90;80.10
7254;DHT22;4060;49.186;9.226;2023-08-01T08:17:07;20.80;80.10
7254;DHT22;4060;49.186;9.226;2023-08-01T08:19:38;20.80;80.20
7254;DHT22;4060;49.186;9.226;2023-08-01T08:22:08;20.80;80.30
7254;DHT22;4060;49.186;9.226;2023-08-01T08:24:37;20.80;80.40
7254;DHT22;4060;49.186;9.226;2023-08-01T08:27:10;20.90;80.60
7254;DHT22;4060;49.186;9.226;2023-08-01T08:29:40;20.90;80.70
7254;DHT22;4060;49.186;9.226;2023-08-01T08:32:16;20.90;80.60
7254;DHT22;4060;49.186;9.226;2023-08-01T08:34:46;20.90;80.60
7254;DHT22;4060;49.186;9.226;2023-08-01T08:37:15;20.80;80.60
7254;DHT22;4060;49.186;9.226;2023-08-01T08:39:46;20.80;80.60
7254;DHT22;4060;49.186;9.226;2023-08-01T08:42:22;20.90;80.70
7254;DHT22;4060;49.186;9.226;2023-08-01T08:44:55;20.80;80.60
7254;DHT22;4060;49.186;9.226;2023-08-01T08:47:26;20.90;80.80
7254;DHT22;4060;49.186;9.226;2023-08-01T08:49:56;20.80;80.80
7254;DHT22;4060;49.186;9.226;2023-08-01T08:52:26;20.80;80.90
7254;DHT22;4060;49.186;9.226;2023-08-01T08:54:57;20.80;81.00
7254;DHT22;4060;49.186;9.226;2023-08-01T08:57:30;20.90;81.00
7254;DHT22;4060;49.186;9.226;2023-08-01T09:00:00;20.90;81.10
7254;DHT22;4060;49.186;9.226;2023-08-01T09:02:33;20.90;81.00
7254;DHT22;4060;49.186;9.226;2023-08-01T09:05:03;20.90;81.10
7254;DHT22;4060;49.186;9.226;2023-08-01T09:07:35;20.90;81.30
7254;DHT22;4060;49.186;9.226;2023-08-01T09:10:10;20.90;81.40
7254;DHT22;4060;49.186;9.226;2023-08-01T09:12:48;20.90;81.40
7254;DHT22;4060;49.186;9.226;2023-08-01T09:15:19;20.80;81.50
7254;DHT22;4060;49.186;9.226;2023-08-01T09:17:51;20.90;81.60
7254;DHT22;4060;49.186;9.226;2023-08-01T09:20:20;20.90;81.80
7254;DHT22;4060;49.186;9.226;2023-08-01T09:22:51;20.80;81.70
7254;DHT22;4060;49.186;9.226;2023-08-01T09:25:30;20.90;82.10
7254;DHT22;4060;49.186;9.226;2023-08-01T09:28:15;20.90;82.20
7254;DHT22;4060;49.186;9.226;2023-08-01T09:30:49;20.90;82.10
7254;DHT22;4060;49.186;9.226;2023-08-01T09:33:19;20.90;82.40
7254;DHT22;4060;49.186;9.226;2023-08-01T09:35:50;20.90;82.50
7254;DHT22;4060;49.186;9.226;2023-08-01T09:38:21;20.90;82.50
7254;DHT22;4060;49.186;9.226;2023-08-01T09:40:51;20.90;82.60
7254;DHT22;4060;49.186;9.226;2023-08-01T09:43:23;20.90;82.80
7254;DHT22;4060;49.186;9.226;2023-08-01T09:45:54;21.00;83.20
7254;DHT22;4060;49.186;9.226;2023-08-01T09:48:24;21.00;83.30
7254;DHT22;4060;49.186;9.226;2023-08-01T09:51:06;21.00;83.20
7254;DHT22;4060;49.186;9.226;2023-08-01T09:53:46;21.00;83.40
7254;DHT22;4060;49.186;9.226;2023-08-01T09:56:19;21.00;83.40
7254;DHT22;4060;49.186;9.226;2023-08-01T09:58:53;21.00;83.40
7254;DHT22;4060;49.186;9.226;2023-08-01T10:01:23;21.10;83.40
7254;DHT22;4060;49.186;9.226;2023-08-01T10:03:57;21.10;83.50
7254;DHT22;4060;49.186;9.226;2023-08-01T10:06:32;21.10;83.90
7254;DHT22;4060;49.186;9.226;2023-08-01T10:09:03;21.10;84.30
7254;DHT22;4060;49.186;9.226;2023-08-01T10:11:35;21.10;84.30
7254;DHT22;4060;49.186;9.226;2023-08-01T10:14:07;21.10;84.30
7254;DHT22;4060;49.186;9.226;2023-08-01T10:16:37;21.20;84.60
7254;DHT22;4060;49.186;9.226;2023-08-01T10:19:07;21.20;84.70
7254;DHT22;4060;49.186;9.226;2023-08-01T10:21:37;21.20;84.60
7254;DHT22;4060;49.186;9.226;2023-08-01T10:24:11;21.30;84.80
7254;DHT22;4060;49.186;9.226;2023-08-01T10:26:41;21.30;85.20
7254;DHT22;4060;49.186;9.226;2023-08-01T10:29:15;21.40;85.10
7254;DHT22;4060;49.186;9.226;2023-08-01T10:31:52;21.40;85.00
7254;DHT22;4060;49.186;9.226;2023-08-01T10:34:22;21.40;84.80
7254;DHT22;4060;49.186;9.226;2023-08-01T10:36:56;21.50;84.10
7254;DHT22;4060;49.186;9.226;2023-08-01T10:39:27;21.50;83.70
7254;DHT22;4060;49.186;9.226;2023-08-01T10:42:00;21.50;83.80
7254;DHT22;4060;49.186;9.226;2023-08-01T10:44:32;21.60;83.80
7254;DHT22;4060;49.186;9.226;2023-08-01T10:47:03;21.60;83.40
7254;DHT22;4060;49.186;9.226;2023-08-01T10:49:38;21.60;83.00
7254;DHT22;4060;49.186;9.226;2023-08-01T10:52:17;21.70;82.90
7254;DHT22;4060;49.186;9.226;2023-08-01T10:54:57;21.70;82.40
7254;DHT22;4060;49.186;9.226;2023-08-01T10:57:28;21.70;82.20
7254;DHT22;4060;49.186;9.226;2023-08-01T11:00:00;21.70;82.00
7254;DHT22;4060;49.186;9.226;2023-08-01T11:02:32;21.70;81.50
7254;DHT22;4060;49.186;9.226;2023-08-01T11:05:03;21.80;81.50
7254;DHT22;4060;49.186;9.226;2023-08-01T11:07:34;21.80;81.40
7254;DHT22;4060;49.186;9.226;2023-08-01T11:10:09;21.80;81.40
7254;DHT22;4060;49.186;9.226;2023-08-01T11:12:40;21.80;81.00
7254;DHT22;4060;49.186;9.226;2023-08-01T11:15:15;21.80;80.30
7254;DHT22;4060;49.186;9.226;2023-08-01T11:17:48;21.80;79.80
7254;DHT22;4060;49.186;9.226;2023-08-01T11:20:19;21.80;80.00
7254;DHT22;4060;49.186;9.226;2023-08-01T11:23:02;21.80;80.40
7254;DHT22;4060;49.186;9.226;2023-08-01T11:25:51;21.80;80.80
7254;DHT22;4060;49.186;9.226;2023-08-01T11:28:24;21.80;80.80
7254;DHT22;4060;49.186;9.226;2023-08-01T11:30:57;21.80;80.60
7254;DHT22;4060;49.186;9.226;2023-08-01T11:33:26;21.80;80.10
7254;DHT22;4060;49.186;9.226;2023-08-01T11:35:57;21.70;79.50
7254;DHT22;4060;49.186;9.226;2023-08-01T11:38:27;21.70;79.00
7254;DHT22;4060;49.186;9.226;2023-08-01T11:40:58;21.70;78.60
7254;DHT22;4060;49.186;9.226;2023-08-01T11:43:39;21.70;78.50
7254;DHT22;4060;49.186;9.226;2023-08-01T11:46:12;21.70;78.90
7254;DHT22;4060;49.186;9.226;2023-08-01T11:48:46;21.60;79.30
7254;DHT22;4060;49.186;9.226;2023-08-01T11:51:17;21.70;80.50
7254;DHT22;4060;49.186;9.226;2023-08-01T11:53:46;21.70;81.00
7254;DHT22;4060;49.186;9.226;2023-08-01T11:56:22;21.70;81.60
7254;DHT22;4060;49.186;9.226;2023-08-01T11:58:51;21.70;82.40
7254;DHT22;4060;49.186;9.226;2023-08-01T12:01:25;21.80;82.70
7254;DHT22;4060;49.186;9.226;2023-08-01T12:03:56;21.80;83.20
7254;DHT22;4060;49.186;9.226;2023-08-01T12:06:26;21.80;83.50
7254;DHT22;4060;49.186;9.226;2023-08-01T12:09:09;21.90;83.70
7254;DHT22;4060;49.186;9.226;2023-08-01T12:11:39;21.90;83.40
7254;DHT22;4060;49.186;9.226;2023-08-01T12:14:10;22.00;82.70
7254;DHT22;4060;49.186;9.226;2023-08-01T12:16:44;22.00;82.10
7254;DHT22;4060;49.186;9.226;2023-08-01T12:19:18;22.10;81.70
7254;DHT22;4060;49.186;9.226;2023-08-01T12:21:50;22.10;81.30
7254;DHT22;4060;49.186;9.226;2023-08-01T12:24:20;22.10;81.00
7254;DHT22;4060;49.186;9.226;2023-08-01T12:26:49;22.20;80.10
7254;DHT22;4060;49.186;9.226;2023-08-01T12:29:19;22.20;78.20
7254;DHT22;4060;49.186;9.226;2023-08-01T12:31:52;22.20;77.50
7254;DHT22;4060;49.186;9.226;2023-08-01T12:34:21;22.20;77.30
7254;DHT22;4060;49.186;9.226;2023-08-01T12:36:51;22.30;77.20
7254;DHT22;4060;49.186;9.226;2023-08-01T12:39:22;22.30;75.80
7254;DHT22;4060;49.186;9.226;2023-08-01T12:41:53;22.30;74.40
7254;DHT22;4060;49.186;9.226;2023-08-01T12:44:22;22.30;74.30
7254;DHT22;4060;49.186;9.226;2023-08-01T12:46:53;22.30;74.00
7254;DHT22;4060;49.186;9.226;2023-08-01T12:49:22;22.40;73.10
7254;DHT22;4060;49.186;9.226;2023-08-01T12:51:53;22.50;72.20
7254;DHT22;4060;49.186;9.226;2023-08-01T12:54:24;22.50;71.60
7254;DHT22;4060;49.186;9.226;2023-08-01T12:56:55;22.50;71.10
7254;DHT22;4060;49.186;9.226;2023-08-01T12:59:25;22.50;69.60
7254;DHT22;4060;49.186;9.226;2023-08-01T13:01:58;22.50;67.70
7254;DHT22;4060;49.186;9.226;2023-08-01T13:04:28;22.60;67.70
7254;DHT22;4060;49.186;9.226;2023-08-01T13:06:58;22.60;67.30
7254;DHT22;4060;49.186;9.226;2023-08-01T13:09:28;22.60;66.80
7254;DHT22;4060;49.186;9.226;2023-08-01T13:11:58;22.60;66.60
7254;DHT22;4060;49.186;9.226;2023-08-01T13:14:28;22.60;66.80
7254;DHT22;4060;49.186;9.226;2023-08-01T13:17:01;22.70;66.70
7254;DHT22;4060;49.186;9.226;2023-08-01T13:19:31;22.70;67.10
7254;DHT22;4060;49.186;9.226;2023-08-01T13:22:05;22.70;65.90
7254;DHT22;4060;49.186;9.226;2023-08-01T13:24:35;22.70;64.70
7254;DHT22;4060;49.186;9.226;2023-08-01T13:27:05;22.80;64.60
7254;DHT22;4060;49.186;9.226;2023-08-01T13:29:37;22.80;63.80
7254;DHT22;4060;49.186;9.226;2023-08-01T13:32:09;22.80;63.60
7254;DHT22;4060;49.186;9.226;2023-08-01T13:34:39;22.90;63.50
7254;DHT22;4060;49.186;9.226;2023-08-01T13:37:09;22.90;63.20
7254;DHT22;4060;49.186;9.226;2023-08-01T13:39:40;22.90;62.70
7254;DHT22;4060;49.186;9.226;2023-08-01T13:42:10;22.90;62.20
7254;DHT22;4060;49.186;9.226;2023-08-01T13:44:41;23.00;61.40
7254;DHT22;4060;49.186;9.226;2023-08-01T13:47:22;23.00;60.60
7254;DHT22;4060;49.186;9.226;2023-08-01T13:49:53;23.00;60.30
7254;DHT22;4060;49.186;9.226;2023-08-01T13:52:24;23.00;60.10
7254;DHT22;4060;49.186;9.226;2023-08-01T13:54:54;23.00;60.10
7254;DHT22;4060;49.186;9.226;2023-08-01T13:57:26;23.10;59.90
7254;DHT22;4060;49.186;9.226;2023-08-01T13:59:56;23.10;59.60
7254;DHT22;4060;49.186;9.226;2023-08-01T14:02:31;23.10;59.80
7254;DHT22;4060;49.186;9.226;2023-08-01T14:05:00;23.20;59.70
7254;DHT22;4060;49.186;9.226;2023-08-01T14:07:31;23.20;59.60
7254;DHT22;4060;49.186;9.226;2023-08-01T14:10:05;23.20;59.40
7254;DHT22;4060;49.186;9.226;2023-08-01T14:12:35;23.20;59.20
7254;DHT22;4060;49.186;9.226;2023-08-01T14:15:05;23.30;58.70
7254;DHT22;4060;49.186;9.226;2023-08-01T14:17:39;23.30;58.40
7254;DHT22;4060;49.186;9.226;2023-08-01T14:20:09;23.30;58.50
7254;DHT22;4060;49.186;9.226;2023-08-01T14:22:41;23.30;58.50
7254;DHT22;4060;49.186;9.226;2023-08-01T14:25:11;23.30;58.50
7254;DHT22;4060;49.186;9.226;2023-08-01T14:27:41;23.30;58.40
7254;DHT22;4060;49.186;9.226;2023-08-01T14:30:13;23.40;58.00
7254;DHT22;4060;49.186;9.226;2023-08-01T14:32:44;23.40;57.30
7254;DHT22;4060;49.186;9.226;2023-08-01T14:35:14;23.40;57.30
7254;DHT22;4060;49.186;9.226;2023-08-01T14:37:44;23.50;57.10
7254;DHT22;4060;49.186;9.226;2023-08-01T14:40:15;23.50;56.90
7254;DHT22;4060;49.186;9.226;2023-08-01T14:42:44;23.50;56.60
7254;DHT22;4060;49.186;9.226;2023-08-01T14:45:15;23.60;56.60
7254;DHT22;4060;49.186;9.226;2023-08-01T14:47:52;23.60;56.30
7254;DHT22;4060;49.186;9.226;2023-08-01T14:50:22;23.60;55.70
7254;DHT22;4060;49.186;9.226;2023-08-01T14:52:52;23.60;55.80
7254;DHT22;4060;49.186;9.226;2023-08-01T14:55:23;23.60;55.90
7254;DHT22;4060;49.186;9.226;2023-08-01T14:57:53;23.60;55.90
7254;DHT22;4060;49.186;9.226;2023-08-01T15:00:23;23.60;55.90
7254;DHT22;4060;49.186;9.226;2023-08-01T15:02:56;23.60;56.00
7254;DHT22;4060;49.186;9.226;2023-08-01T15:05:25;23.70;55.80
7254;DHT22;4060;49.186;9.226;2023-08-01T15:07:56;23.70;55.60
7254;DHT22;4060;49.186;9.226;2023-08-01T15:10:27;23.70;55.20
7254;DHT22;4060;49.186;9.226;2023-08-01T15:12:58;23.70;54.90
7254;DHT22;4060;49.186;9.226;2023-08-01T15:15:35;23.70;54.80
7254;DHT22;4060;49.186;9.226;2023-08-01T15:18:08;23.70;55.00
7254;DHT22;4060;49.186;9.226;2023-08-01T15:20:39;23.70;54.80
7254;DHT22;4060;49.186;9.226;2023-08-01T15:23:09;23.70;54.50
7254;DHT22;4060;49.186;9.226;2023-08-01T15:25:39;23.70;54.10
7254;DHT22;4060;49.186;9.226;2023-08-01T15:28:11;23.70;53.80
7254;DHT22;4060;49.186;9.226;2023-08-01T15:30:41;23.70;52.90
7254;DHT22;4060;49.186;9.226;2023-08-01T15:33:13;23.70;52.70
7254;DHT22;4060;49.186;9.226;2023-08-01T15:35:42;23.80;53.00
7254;DHT22;4060;49.186;9.226;2023-08-01T15:38:12;23.80;53.20
7254;DHT22;4060;49.186;9.226;2023-08-01T15:40:42;23.80;53.00
7254;DHT22;4060;49.186;9.226;2023-08-01T15:43:12;23.80;52.40
7254;DHT22;4060;49.186;9.226;2023-08-01T15:45:42;23.90;52.10
7254;DHT22;4060;49.186;9.226;2023-08-01T15:48:16;23.90;52.20
7254;DHT22;4060;49.186;9.226;2023-08-01T15:50:47;23.90;51.90
7254;DHT22;4060;49.186;9.226;2023-08-01T15:53:16;23.90;52.20
7254;DHT22;4060;49.186;9.226;2023-08-01T15:55:55;23.90;52.50
7254;DHT22;4060;49.186;9.226;2023-08-01T15:58:25;23.90;52.50
7254;DHT22;4060;49.186;9.226;2023-08-01T16:00:56;24.00;53.10
7254;DHT22;4060;49.186;9.226;2023-08-01T16:03:29;24.00;52.40
7254;DHT22;4060;49.186;9.226;2023-08-01T16:05:59;24.00;52.30
7254;DHT22;4060;49.186;9.226;2023-08-01T16:08:30;24.00;52.00
7254;DHT22;4060;49.186;9.226;2023-08-01T16:11:01;24.00;52.10
7254;DHT22;4060;49.186;9.226;2023-08-01T16:13:32;24.00;51.80
7254;DHT22;4060;49.186;9.226;2023-08-01T16:16:02;24.00;51.70
7254;DHT22;4060;49.186;9.226;2023-08-01T16:18:35;24.00;51.90
7254;DHT22;4060;49.186;9.226;2023-08-01T16:21:06;24.00;52.00
7254;DHT22;4060;49.186;9.226;2023-08-01T16:23:37;24.00;52.00
7254;DHT22;4060;49.186;9.226;2023-08-01T16:26:07;24.00;52.10